createdAt,value
2018-10-17T00:02:23.432Z,14.17
2018-10-17T00:04:52.499Z,13.10
2018-10-17T00:07:21.479Z,13.90
2018-10-17T00:09:50.486Z,13.37
2018-10-17T00:12:19.492Z,13.03
2018-10-17T00:14:48.500Z,13.20
2018-10-17T00:17:17.504Z,13.60
2018-10-17T00:19:46.494Z,13.47
2018-10-17T00:22:15.494Z,13.67
2018-10-17T00:24:44.544Z,12.50
2018-10-17T00:27:13.551Z,12.87
2018-10-17T00:29:42.548Z,12.07
2018-10-17T00:32:11.566Z,12.50
2018-10-17T00:34:40.552Z,13.30
2018-10-17T00:37:09.730Z,13.67
2018-10-17T00:39:38.659Z,14.10
2018-10-17T00:42:07.716Z,12.93
2018-10-17T00:44:36.699Z,13.37
2018-10-17T00:47:05.990Z,13.90
2018-10-17T00:49:34.979Z,17.53
2018-10-17T00:52:04.043Z,20.67
2018-10-17T00:54:33.073Z,18.67
2018-10-17T00:57:02.090Z,21.03
2018-10-17T00:59:31.103Z,18.90
2018-10-17T01:02:00.101Z,19.27
2018-10-17T01:04:29.129Z,20.53
2018-10-17T01:06:58.178Z,21.43
2018-10-17T01:09:27.805Z,19.90
2018-10-17T01:11:56.836Z,19.60
2018-10-17T01:14:25.833Z,18.67
2018-10-17T01:16:54.829Z,18.63
2018-10-17T01:19:23.834Z,19.43
2018-10-17T01:21:52.880Z,19.93
2018-10-17T01:24:21.877Z,18.60
2018-10-17T01:26:50.883Z,19.13
2018-10-17T01:29:19.891Z,19.23
2018-10-17T01:31:48.914Z,20.13
2018-10-17T01:34:17.916Z,19.23
2018-10-17T01:36:46.914Z,20.03
2018-10-17T01:39:15.959Z,20.30
2018-10-17T01:41:44.995Z,20.93
2018-10-17T01:44:14.030Z,19.17
2018-10-17T01:46:43.043Z,20.17
2018-10-17T01:49:12.137Z,22.00
2018-10-17T01:51:41.170Z,20.23
2018-10-17T01:54:10.231Z,21.70
2018-10-17T01:56:39.255Z,21.10
2018-10-17T01:59:08.374Z,20.50
2018-10-17T02:01:37.411Z,20.23
2018-10-17T02:04:06.446Z,21.17
2018-10-17T02:06:35.498Z,21.33
2018-10-17T02:09:06.773Z,21.30
2018-10-17T02:11:36.068Z,22.90
2018-10-17T02:14:05.542Z,22.80
2018-10-17T02:16:34.752Z,22.53
2018-10-17T02:19:03.966Z,22.03
2018-10-17T02:21:33.164Z,24.03
2018-10-17T02:24:02.288Z,24.57
2018-10-17T02:26:31.444Z,23.03
2018-10-17T02:29:00.633Z,23.10
2018-10-17T02:31:29.616Z,22.73
2018-10-17T02:33:58.628Z,23.53
2018-10-17T02:36:27.638Z,23.70
2018-10-17T02:38:56.648Z,23.63
2018-10-17T02:41:25.672Z,22.83
2018-10-17T02:43:54.712Z,23.90
2018-10-17T02:46:23.719Z,22.83
2018-10-17T02:48:52.741Z,23.27
2018-10-17T02:51:21.727Z,23.90
2018-10-17T02:53:50.727Z,24.70
2018-10-17T02:56:19.710Z,23.47
2018-10-17T02:58:48.721Z,23.13
2018-10-17T03:01:17.856Z,24.60
2018-10-17T03:03:46.735Z,23.77
2018-10-17T03:06:15.763Z,23.60
2018-10-17T03:08:44.791Z,23.53
2018-10-17T03:11:13.960Z,22.80
2018-10-17T03:13:42.847Z,22.53
2018-10-17T03:16:11.907Z,21.37
2018-10-17T03:18:40.974Z,21.67
2018-10-17T03:21:09.997Z,22.53
2018-10-17T03:23:39.005Z,22.43
2018-10-17T03:26:08.068Z,23.07
2018-10-17T03:28:37.079Z,22.23
2018-10-17T03:31:06.265Z,20.50
2018-10-17T03:33:35.191Z,23.83
2018-10-17T03:36:04.369Z,24.00
2018-10-17T03:38:33.311Z,22.30
2018-10-17T03:41:02.442Z,27.40
2018-10-17T03:43:31.319Z,26.97
2018-10-17T03:46:00.345Z,26.83
2018-10-17T03:48:29.354Z,27.20
2018-10-17T03:50:58.371Z,26.83
2018-10-17T03:53:27.414Z,24.83
2018-10-17T03:55:56.432Z,25.07
2018-10-17T03:58:25.415Z,25.03
2018-10-17T04:00:54.467Z,23.77
2018-10-17T04:03:23.429Z,22.57
2018-10-17T04:05:52.465Z,23.43
2018-10-17T04:08:21.492Z,20.93
2018-10-17T04:10:50.520Z,23.00
2018-10-17T04:13:19.699Z,21.30
2018-10-17T04:15:48.576Z,22.73
2018-10-17T04:18:17.601Z,22.80
2018-10-17T04:20:46.638Z,20.07
2018-10-17T04:23:15.659Z,19.83
2018-10-17T04:25:44.673Z,18.60
2018-10-17T04:28:13.670Z,18.37
2018-10-17T04:30:42.654Z,18.03
2018-10-17T04:33:11.686Z,17.43
2018-10-17T04:35:40.716Z,17.80
2018-10-17T04:38:09.786Z,17.50
2018-10-17T04:40:38.784Z,18.47
2018-10-17T04:43:07.918Z,19.57
2018-10-17T04:45:36.879Z,20.30
2018-10-17T04:48:06.010Z,22.83
2018-10-17T04:50:35.012Z,21.73
2018-10-17T04:53:04.056Z,21.93
2018-10-17T04:55:33.094Z,23.50
2018-10-17T04:58:02.152Z,23.37
2018-10-17T05:00:31.152Z,25.67
2018-10-17T05:03:00.154Z,23.97
2018-10-17T05:05:29.184Z,23.90
2018-10-17T05:07:58.197Z,24.20
2018-10-17T05:10:27.205Z,24.87
2018-10-17T05:12:56.273Z,23.87
2018-10-17T05:15:25.321Z,23.33
2018-10-17T05:17:54.200Z,24.20
2018-10-17T05:20:23.234Z,24.03
2018-10-17T05:22:52.254Z,25.17
2018-10-17T05:25:21.426Z,25.53
2018-10-17T05:27:50.423Z,26.73
2018-10-17T05:30:19.480Z,26.20
2018-10-17T05:32:48.518Z,27.07
2018-10-17T05:35:17.543Z,28.20
2018-10-17T05:37:46.635Z,28.27
2018-10-17T05:40:15.597Z,35.67
2018-10-17T05:42:44.607Z,30.47
2018-10-17T05:45:13.620Z,31.70
2018-10-17T05:47:42.655Z,32.70
2018-10-17T05:50:11.655Z,30.53
2018-10-17T05:52:40.650Z,31.50
2018-10-17T05:55:09.743Z,31.47
2018-10-17T05:57:38.728Z,31.00
2018-10-17T06:00:08.261Z,30.77
2018-10-17T06:02:38.076Z,33.43
2018-10-17T06:05:08.039Z,34.70
2018-10-17T06:07:37.675Z,35.87
2018-10-17T06:10:08.097Z,34.27
2018-10-17T06:12:37.149Z,34.30
2018-10-17T06:15:06.832Z,36.57
2018-10-17T06:17:36.643Z,35.60
2018-10-17T06:20:07.170Z,32.27
2018-10-17T06:22:37.081Z,33.07
2018-10-17T06:25:08.291Z,30.80
2018-10-17T06:27:37.685Z,31.43
2018-10-17T06:30:08.909Z,32.23
2018-10-17T06:32:39.107Z,29.97
2018-10-17T06:35:09.208Z,29.67
2018-10-17T06:37:38.457Z,30.00
2018-10-17T06:40:08.438Z,30.63
2018-10-17T06:42:37.450Z,30.90
2018-10-17T06:45:06.650Z,30.77
2018-10-17T06:47:35.656Z,31.57
2018-10-17T06:50:04.959Z,30.63
2018-10-17T06:52:33.971Z,30.63
2018-10-17T06:55:03.078Z,30.67
2018-10-17T06:57:32.070Z,30.87
2018-10-17T07:00:01.084Z,31.20
2018-10-17T07:02:30.114Z,30.10
2018-10-17T07:04:59.172Z,30.13
2018-10-17T07:07:28.141Z,29.73
2018-10-17T07:09:57.138Z,28.47
2018-10-17T07:12:26.163Z,29.50
2018-10-17T07:14:55.170Z,30.37
2018-10-17T07:17:24.176Z,28.60
2018-10-17T07:19:53.234Z,29.93
2018-10-17T07:22:22.262Z,28.73
2018-10-17T07:24:51.271Z,29.20
2018-10-17T07:27:20.346Z,28.40
2018-10-17T07:29:49.467Z,28.63
2018-10-17T07:32:18.458Z,28.63
2018-10-17T07:34:47.471Z,29.73
2018-10-17T07:37:16.502Z,28.80
2018-10-17T07:39:45.531Z,29.37
2018-10-17T07:42:14.687Z,31.60
2018-10-17T07:44:43.641Z,29.97
2018-10-17T07:47:12.729Z,30.47
2018-10-17T07:49:41.965Z,30.23
2018-10-17T07:52:11.035Z,29.77
2018-10-17T07:54:40.051Z,30.30
2018-10-17T07:57:09.067Z,29.63
2018-10-17T07:59:38.114Z,31.47
2018-10-17T08:02:07.139Z,30.50
2018-10-17T08:04:36.171Z,30.40
2018-10-17T08:07:05.597Z,30.43
2018-10-17T08:09:34.577Z,30.13
2018-10-17T08:12:03.670Z,31.27
2018-10-17T08:14:32.857Z,29.30
2018-10-17T08:17:01.947Z,30.17
2018-10-17T08:19:30.950Z,28.53
2018-10-17T08:21:59.972Z,30.37
2018-10-17T08:24:28.952Z,28.00
2018-10-17T08:26:57.987Z,28.97
2018-10-17T08:29:26.985Z,29.87
2018-10-17T08:31:56.089Z,28.57
2018-10-17T08:34:25.107Z,30.57
2018-10-17T08:36:54.224Z,29.40
2018-10-17T08:39:23.175Z,31.50
2018-10-17T08:41:52.223Z,30.77
2018-10-17T08:44:21.320Z,29.20
2018-10-17T08:46:50.302Z,31.43
2018-10-17T08:49:19.346Z,29.83
2018-10-17T08:51:48.357Z,29.43
2018-10-17T08:54:17.380Z,30.00
2018-10-17T08:56:46.425Z,29.20
2018-10-17T08:59:15.467Z,28.87
2018-10-17T09:01:44.893Z,27.53
2018-10-17T09:04:13.940Z,26.13
2018-10-17T09:06:42.986Z,26.20
2018-10-17T09:09:13.364Z,23.87
2018-10-17T09:11:42.540Z,24.90
2018-10-17T09:14:11.885Z,23.30
2018-10-17T09:16:40.999Z,23.20
2018-10-17T09:19:10.445Z,24.18
2018-10-17T09:21:39.846Z,21.55
2018-10-17T09:24:08.714Z,22.93
2018-10-17T09:26:37.734Z,21.25
2018-10-17T09:29:06.760Z,19.75
2018-10-17T09:31:35.775Z,18.00
2018-10-17T09:34:04.883Z,18.73
2018-10-17T09:36:33.844Z,18.12
2018-10-17T09:39:03.046Z,18.20
2018-10-17T09:41:32.302Z,16.80
2018-10-17T09:44:01.292Z,14.70
2018-10-17T09:46:30.302Z,15.45
2018-10-17T09:48:59.328Z,15.63
2018-10-17T09:51:28.430Z,15.32
2018-10-17T09:53:57.510Z,16.15
2018-10-17T09:56:26.596Z,15.18
2018-10-17T09:58:55.601Z,16.55
2018-10-17T10:01:29.942Z,13.53
2018-10-17T10:03:58.951Z,13.15
2018-10-17T10:06:27.977Z,14.03
2018-10-17T10:08:57.012Z,14.05
2018-10-17T10:11:26.018Z,13.18
2018-10-17T10:13:55.046Z,12.28
2018-10-17T10:16:24.129Z,12.15
2018-10-17T10:18:53.146Z,12.53
2018-10-17T10:21:22.149Z,10.88
2018-10-17T10:23:51.249Z,10.80
2018-10-17T10:26:20.200Z,10.45
2018-10-17T10:28:49.243Z,9.43
2018-10-17T10:31:18.245Z,9.80
2018-10-17T10:33:47.271Z,7.58
2018-10-17T10:36:16.387Z,10.50
2018-10-17T10:38:45.392Z,9.88
2018-10-17T10:41:14.398Z,11.88
2018-10-17T10:43:43.411Z,10.45
2018-10-17T10:46:12.479Z,10.95
2018-10-17T10:48:41.654Z,10.65
2018-10-17T10:51:10.759Z,10.20
2018-10-17T10:53:39.787Z,10.88
2018-10-17T10:56:09.045Z,11.33
2018-10-17T10:58:38.068Z,10.90
2018-10-17T11:01:07.117Z,10.00
2018-10-17T11:03:36.128Z,10.63
2018-10-17T11:06:05.237Z,9.58
2018-10-17T11:08:34.241Z,10.05
2018-10-17T11:11:03.318Z,10.63
2018-10-17T11:13:32.294Z,10.43
2018-10-17T11:16:01.309Z,11.15
2018-10-17T11:18:30.327Z,10.00
2018-10-17T11:20:59.359Z,10.65
2018-10-17T11:23:28.352Z,11.03
2018-10-17T11:25:57.335Z,12.90
2018-10-17T11:28:26.455Z,10.53
2018-10-17T11:30:55.487Z,10.38
2018-10-17T11:33:24.498Z,13.70
2018-10-17T11:35:53.560Z,13.48
2018-10-17T11:38:22.625Z,12.10
2018-10-17T11:40:51.710Z,12.50
2018-10-17T11:43:20.852Z,11.95
2018-10-17T11:45:49.853Z,12.68
2018-10-17T11:48:18.875Z,12.37
2018-10-17T11:50:47.919Z,12.18
2018-10-17T11:53:17.137Z,11.75
2018-10-17T11:55:46.006Z,12.00
2018-10-17T11:58:15.029Z,12.68
2018-10-17T12:00:44.071Z,12.35
2018-10-17T12:03:13.288Z,14.03
2018-10-17T12:05:42.337Z,15.03
2018-10-17T12:08:11.206Z,12.23
2018-10-17T12:10:40.286Z,13.00
2018-10-17T12:13:09.309Z,13.27
2018-10-17T12:15:43.110Z,12.67
2018-10-17T12:18:12.560Z,12.27
2018-10-17T12:20:41.547Z,14.80
2018-10-17T12:23:10.689Z,13.63
2018-10-17T12:25:39.697Z,13.83
2018-10-17T12:28:09.229Z,12.63
2018-10-17T12:30:37.953Z,11.70
2018-10-17T12:33:07.088Z,12.23
2018-10-17T12:35:36.028Z,11.53
2018-10-17T12:38:05.138Z,14.60
2018-10-17T12:40:34.301Z,13.27
2018-10-17T12:43:03.830Z,14.30
2018-10-17T12:45:32.897Z,12.83
2018-10-17T12:48:01.856Z,13.00
2018-10-17T12:50:30.898Z,14.27
2018-10-17T12:53:00.190Z,13.23
2018-10-17T12:55:28.944Z,11.80
2018-10-17T12:57:58.242Z,13.03
2018-10-17T13:00:27.307Z,14.37
2018-10-17T13:02:56.347Z,14.20
2018-10-17T13:05:25.400Z,14.60
2018-10-17T13:07:54.439Z,13.47
2018-10-17T13:10:23.462Z,12.53
2018-10-17T13:12:52.494Z,12.10
2018-10-17T13:15:21.534Z,12.47
2018-10-17T13:17:50.597Z,11.47
2018-10-17T13:20:19.618Z,11.80
2018-10-17T13:22:48.632Z,12.37
2018-10-17T13:25:17.723Z,11.17
2018-10-17T13:27:46.643Z,14.00
2018-10-17T13:30:15.646Z,13.43
2018-10-17T13:32:44.686Z,12.27
2018-10-17T13:35:13.734Z,12.07
2018-10-17T13:37:42.652Z,12.60
2018-10-17T13:40:11.659Z,11.87
2018-10-17T13:42:40.740Z,12.00
2018-10-17T13:45:09.848Z,13.17
2018-10-17T13:47:38.903Z,13.37
2018-10-17T13:50:07.980Z,10.97
2018-10-17T13:52:36.978Z,11.07
2018-10-17T13:55:06.643Z,11.37
2018-10-17T13:57:35.724Z,13.33
2018-10-17T14:00:05.301Z,12.93
2018-10-17T14:02:34.392Z,12.97
2018-10-17T14:05:03.446Z,11.33
2018-10-17T14:07:32.482Z,13.80
2018-10-17T14:10:01.493Z,13.23
2018-10-17T14:12:30.522Z,12.80
2018-10-17T14:14:59.562Z,12.70
2018-10-17T14:17:28.534Z,12.87
2018-10-17T14:19:57.542Z,13.47
2018-10-17T14:22:26.578Z,10.97
2018-10-17T14:24:55.578Z,12.37
2018-10-17T14:27:24.606Z,15.00
2018-10-17T14:29:53.789Z,13.03
2018-10-17T14:32:22.761Z,11.43
2018-10-17T14:34:51.758Z,11.97
2018-10-17T14:37:20.769Z,9.90
2018-10-17T14:39:49.815Z,9.57
2018-10-17T14:42:18.899Z,10.37
2018-10-17T14:44:47.890Z,10.53
2018-10-17T14:47:16.889Z,11.60
2018-10-17T14:49:45.909Z,11.53
2018-10-17T14:52:14.949Z,11.37
2018-10-17T14:54:43.966Z,12.80
2018-10-17T14:57:13.065Z,12.23
2018-10-17T14:59:42.005Z,13.87
2018-10-17T15:02:11.019Z,13.30
2018-10-17T15:04:40.053Z,11.07
2018-10-17T15:07:09.071Z,11.77
2018-10-17T15:09:38.073Z,12.23
2018-10-17T15:12:07.159Z,10.60
2018-10-17T15:14:36.108Z,11.97
2018-10-17T15:17:05.350Z,11.07
2018-10-17T15:19:34.372Z,10.87
2018-10-17T15:22:03.403Z,12.00
2018-10-17T15:24:32.495Z,11.77
2018-10-17T15:27:01.541Z,10.90
2018-10-17T15:29:30.544Z,10.87
2018-10-17T15:31:59.646Z,11.27
2018-10-17T15:34:28.556Z,10.00
2018-10-17T15:36:57.683Z,10.93
2018-10-17T15:39:26.648Z,10.60
2018-10-17T15:41:56.210Z,11.67
2018-10-17T15:44:25.265Z,13.40
2018-10-17T15:46:54.636Z,13.03
2018-10-17T15:49:24.050Z,15.50
2018-10-17T15:51:53.228Z,15.57
2018-10-17T15:54:22.346Z,15.93
2018-10-17T15:56:51.350Z,12.87
2018-10-17T15:59:20.643Z,15.37
2018-10-17T16:01:49.676Z,16.70
2018-10-17T16:04:18.934Z,15.90
2018-10-17T16:06:47.938Z,16.23
2018-10-17T16:09:16.947Z,16.10
2018-10-17T16:11:46.005Z,14.30
2018-10-17T16:14:15.070Z,16.93
2018-10-17T16:16:44.058Z,17.80
2018-10-17T16:19:13.188Z,18.40
2018-10-17T16:21:42.262Z,17.27
2018-10-17T16:24:11.438Z,18.17
2018-10-17T16:26:40.338Z,17.70
2018-10-17T16:29:09.365Z,16.57
2018-10-17T16:31:38.422Z,19.23
2018-10-17T16:34:07.503Z,19.53
2018-10-17T16:36:36.504Z,18.33
2018-10-17T16:39:07.970Z,17.60
2018-10-17T16:41:37.084Z,19.10
2018-10-17T16:44:06.235Z,20.93
2018-10-17T16:46:35.256Z,17.97
2018-10-17T16:49:04.393Z,18.53
2018-10-17T16:51:33.422Z,18.90
2018-10-17T16:54:02.500Z,19.77
2018-10-17T16:56:31.442Z,19.30
2018-10-17T16:59:00.453Z,18.90
2018-10-17T17:01:29.611Z,18.27
2018-10-17T17:03:58.626Z,18.83
2018-10-17T17:06:27.640Z,18.97
2018-10-17T17:08:56.706Z,18.17
2018-10-17T17:11:25.747Z,17.93
2018-10-17T17:13:56.453Z,18.00
2018-10-17T17:16:25.604Z,19.57
2018-10-17T17:18:54.474Z,19.40
2018-10-17T17:21:23.494Z,18.67
2018-10-17T17:23:52.501Z,21.80
2018-10-17T17:26:21.536Z,20.20
2018-10-17T17:28:50.559Z,19.23
2018-10-17T17:31:19.799Z,19.83
2018-10-17T17:33:48.845Z,21.07
2018-10-17T17:36:17.911Z,23.37
2018-10-17T17:38:46.889Z,24.13
2018-10-17T17:41:15.914Z,22.77
2018-10-17T17:43:44.913Z,25.37
2018-10-17T17:46:13.962Z,25.10
2018-10-17T17:48:42.974Z,25.63
2018-10-17T17:51:11.993Z,23.57
2018-10-17T17:53:41.056Z,22.80
2018-10-17T17:56:10.068Z,22.00
2018-10-17T17:58:39.296Z,22.90
2018-10-17T18:01:08.104Z,22.13
2018-10-17T18:03:37.102Z,22.30
2018-10-17T18:06:06.134Z,21.83
2018-10-17T18:08:35.176Z,18.57
2018-10-17T18:11:16.274Z,19.63
2018-10-17T18:13:45.518Z,20.67
2018-10-17T18:16:14.621Z,18.87
2018-10-17T18:18:44.102Z,19.93
2018-10-17T18:21:13.352Z,21.57
2018-10-17T18:23:42.894Z,19.30
2018-10-17T18:26:14.546Z,17.90
2018-10-17T18:28:48.011Z,18.80
2018-10-17T18:31:17.606Z,17.00
2018-10-17T18:33:46.622Z,16.20
2018-10-17T18:36:15.644Z,16.83
2018-10-17T18:38:44.663Z,17.40
2018-10-17T18:41:13.739Z,16.83
2018-10-17T18:43:42.786Z,16.73
2018-10-17T18:46:12.116Z,15.53
2018-10-17T18:48:41.193Z,15.20
2018-10-17T18:51:10.378Z,14.50
2018-10-17T18:53:39.408Z,14.63
2018-10-17T18:56:08.472Z,15.20
2018-10-17T18:58:38.171Z,15.63
2018-10-17T19:01:07.399Z,15.47
2018-10-17T19:03:36.517Z,17.43
2018-10-17T19:06:06.218Z,16.57
2018-10-17T19:08:35.311Z,15.13
2018-10-17T19:11:04.546Z,15.80
2018-10-17T19:13:33.664Z,15.93
2018-10-17T19:16:02.905Z,15.90
2018-10-17T19:18:32.211Z,15.87
2018-10-17T19:21:01.427Z,14.43
2018-10-17T19:23:31.474Z,15.77
2018-10-17T19:26:00.714Z,14.17
2018-10-17T19:28:29.817Z,15.23
2018-10-17T19:30:59.051Z,14.90
2018-10-17T19:33:28.183Z,15.20
2018-10-17T19:35:58.175Z,15.57
2018-10-17T19:38:27.423Z,15.17
2018-10-17T19:40:56.548Z,15.53
2018-10-17T19:43:25.616Z,14.67
2018-10-17T19:45:54.801Z,14.20
2018-10-17T19:48:23.933Z,15.27
2018-10-17T19:50:52.935Z,15.10
2018-10-17T19:53:22.003Z,15.40
2018-10-17T19:55:51.507Z,14.17
2018-10-17T19:58:20.467Z,15.43
2018-10-17T20:00:49.653Z,14.30
2018-10-17T20:03:18.778Z,14.20
2018-10-17T20:05:47.906Z,15.23
2018-10-17T20:08:17.053Z,14.17
2018-10-17T20:10:46.101Z,14.67
2018-10-17T20:13:15.115Z,15.27
2018-10-17T20:15:44.121Z,14.53
2018-10-17T20:18:13.181Z,15.07
2018-10-17T20:20:42.269Z,14.43
2018-10-17T20:23:11.384Z,14.50
2018-10-17T20:25:40.392Z,15.03
2018-10-17T20:28:09.569Z,13.87
2018-10-17T20:30:38.762Z,14.83
2018-10-17T20:33:07.799Z,14.60
2018-10-17T20:35:37.074Z,13.57
2018-10-17T20:38:06.527Z,13.17
2018-10-17T20:40:35.790Z,13.40
2018-10-17T20:43:04.886Z,13.87
2018-10-17T20:45:33.942Z,13.83
2018-10-17T20:48:03.078Z,14.37
2018-10-17T20:50:32.178Z,13.53
2018-10-17T20:53:01.593Z,14.60
2018-10-17T20:55:30.598Z,13.37
2018-10-17T20:57:59.654Z,15.00
2018-10-17T21:00:28.701Z,13.83
2018-10-17T21:02:57.793Z,13.47
2018-10-17T21:05:26.811Z,14.03
2018-10-17T21:07:55.983Z,13.20
2018-10-17T21:10:25.042Z,12.53
2018-10-17T21:12:54.068Z,12.33
2018-10-17T21:15:23.124Z,12.63
2018-10-17T21:17:52.184Z,12.70
2018-10-17T21:20:21.313Z,11.73
2018-10-17T21:22:50.348Z,12.40
2018-10-17T21:25:19.375Z,12.83
2018-10-17T21:27:48.424Z,14.43
2018-10-17T21:30:17.475Z,12.57
2018-10-17T21:32:46.528Z,12.90
2018-10-17T21:35:15.531Z,12.60
2018-10-17T21:37:44.639Z,11.63
2018-10-17T21:40:13.725Z,12.57
2018-10-17T21:42:42.726Z,12.10
2018-10-17T21:45:11.730Z,13.10
2018-10-17T21:47:40.754Z,13.13
2018-10-17T21:50:09.871Z,13.33
2018-10-17T21:52:38.831Z,13.23
2018-10-17T21:55:07.870Z,13.00
2018-10-17T21:57:36.856Z,13.23
2018-10-17T22:00:07.226Z,13.47
2018-10-17T22:02:36.249Z,12.07
2018-10-17T22:05:06.589Z,11.60
2018-10-17T22:07:35.754Z,12.40
2018-10-17T22:10:05.244Z,13.00
2018-10-17T22:12:34.240Z,11.23
2018-10-17T22:15:04.899Z,11.47
2018-10-17T22:17:33.928Z,11.60
2018-10-17T22:20:03.047Z,11.53
2018-10-17T22:22:31.987Z,11.37
2018-10-17T22:25:01.018Z,12.30
2018-10-17T22:27:30.063Z,12.40
2018-10-17T22:29:59.121Z,11.70
2018-10-17T22:32:28.115Z,12.37
2018-10-17T22:34:57.279Z,12.17
2018-10-17T22:37:26.319Z,12.50
2018-10-17T22:39:55.343Z,11.10
2018-10-17T22:42:24.367Z,11.60
2018-10-17T22:44:53.375Z,11.63
2018-10-17T22:47:22.451Z,11.07
2018-10-17T22:49:51.488Z,12.40
2018-10-17T22:52:20.541Z,13.10
2018-10-17T22:54:49.557Z,11.00
2018-10-17T22:57:18.552Z,11.73
2018-10-17T22:59:47.597Z,11.17
2018-10-17T23:02:16.670Z,10.80
2018-10-17T23:04:45.661Z,11.60
2018-10-17T23:07:14.691Z,12.07
2018-10-17T23:09:43.704Z,12.87
2018-10-17T23:12:12.736Z,12.23
2018-10-17T23:14:41.735Z,12.73
2018-10-17T23:17:10.770Z,12.20
2018-10-17T23:19:39.808Z,12.57
2018-10-17T23:22:08.832Z,13.57
2018-10-17T23:24:37.854Z,13.50
2018-10-17T23:27:06.922Z,14.17
2018-10-17T23:29:35.970Z,13.83
2018-10-17T23:32:05.183Z,12.77
2018-10-17T23:34:34.145Z,13.80
2018-10-17T23:37:03.167Z,13.87
2018-10-17T23:39:32.169Z,13.93
2018-10-17T23:42:01.269Z,14.60
2018-10-17T23:44:30.231Z,14.23
2018-10-17T23:46:59.244Z,14.03
2018-10-17T23:49:28.464Z,14.10
2018-10-17T23:51:57.666Z,14.17
2018-10-17T23:54:26.672Z,14.10
2018-10-17T23:56:55.702Z,13.73
2018-10-17T23:59:24.738Z,13.60
